createdAt,value
2022-08-08T00:00:54.678Z,15.06
2022-08-08T00:06:04.038Z,14.90
2022-08-08T00:12:07.498Z,15.00
2022-08-08T00:17:26.859Z,15.20
2022-08-08T00:22:49.012Z,15.16
2022-08-08T00:27:59.925Z,15.00
2022-08-08T00:33:16.723Z,14.90
2022-08-08T00:38:44.270Z,14.96
2022-08-08T00:44:35.504Z,15.10
2022-08-08T00:50:11.163Z,15.00
2022-08-08T00:55:35.779Z,14.80
2022-08-08T01:01:37.697Z,14.70
2022-08-08T01:07:55.361Z,14.46
2022-08-08T01:13:08.778Z,14.50
2022-08-08T01:19:02.586Z,14.50
2022-08-08T01:24:38.930Z,14.50
2022-08-08T01:30:03.558Z,14.30
2022-08-08T01:35:30.474Z,14.10
2022-08-08T01:41:09.875Z,14.08
2022-08-08T01:46:52.268Z,13.98
2022-08-08T01:53:54.878Z,13.90
2022-08-08T01:58:14.481Z,14.00
2022-08-08T02:03:55.090Z,14.00
2022-08-08T02:10:03.325Z,13.80
2022-08-08T02:15:41.113Z,13.60
2022-08-08T02:21:20.514Z,13.60
2022-08-08T02:27:05.763Z,13.60
2022-08-08T02:32:32.857Z,13.70
2022-08-08T02:38:30.082Z,13.76
2022-08-08T02:44:38.612Z,13.82
2022-08-08T02:50:12.568Z,13.90
2022-08-08T02:55:49.163Z,14.00
2022-08-08T03:01:47.323Z,14.10
2022-08-08T03:07:25.756Z,14.10
2022-08-08T03:15:54.562Z,14.10
2022-08-08T03:19:28.046Z,14.02
2022-08-08T03:24:32.374Z,14.10
2022-08-08T03:29:54.755Z,14.10
2022-08-08T03:35:00.999Z,14.10
2022-08-08T03:40:18.269Z,14.10
2022-08-08T03:46:03.330Z,14.02
2022-08-08T03:50:56.394Z,14.10
2022-08-08T03:56:04.439Z,14.10
2022-08-08T04:01:23.101Z,14.20
2022-08-08T04:06:36.031Z,14.10
2022-08-08T04:11:57.659Z,14.02
2022-08-08T04:17:06.846Z,14.10
2022-08-08T04:22:24.130Z,14.20
2022-08-08T04:28:01.862Z,14.34
2022-08-08T04:33:03.014Z,14.50
2022-08-08T04:38:09.547Z,14.50
2022-08-08T04:43:13.876Z,14.50
2022-08-08T04:48:22.132Z,14.70
2022-08-08T04:54:36.234Z,14.90
2022-08-08T04:58:50.888Z,15.10
2022-08-08T05:04:11.480Z,15.40
2022-08-08T05:09:21.462Z,15.60
2022-08-08T05:14:26.275Z,15.92
2022-08-08T05:20:09.787Z,16.10
2022-08-08T05:25:00.519Z,16.42
2022-08-08T05:30:06.095Z,16.74
2022-08-08T05:35:13.647Z,17.10
2022-08-08T05:40:21.577Z,17.60
2022-08-08T05:45:42.939Z,17.90
2022-08-08T05:50:58.962Z,18.20
2022-08-08T05:56:20.646Z,18.40
2022-08-08T06:01:55.470Z,18.58
2022-08-08T06:06:56.487Z,18.70
2022-08-08T06:12:05.578Z,18.90
2022-08-08T06:17:11.057Z,19.30
2022-08-08T06:22:42.065Z,19.50
2022-08-08T06:27:54.580Z,19.60
2022-08-08T06:33:02.188Z,19.72
2022-08-08T06:38:09.442Z,20.00
2022-08-08T06:43:28.826Z,20.30
2022-08-08T06:48:38.998Z,20.60
2022-08-08T06:53:50.952Z,20.90
2022-08-08T06:59:00.740Z,21.10
2022-08-08T07:04:38.778Z,21.36
2022-08-08T07:10:16.713Z,21.40
2022-08-08T07:16:04.579Z,21.70
2022-08-08T07:21:19.102Z,22.10
2022-08-08T07:26:32.983Z,22.30
2022-08-08T07:31:41.999Z,22.70
2022-08-08T07:36:50.738Z,22.86
2022-08-08T07:42:03.730Z,23.20
2022-08-08T07:47:10.743Z,23.30
2022-08-08T07:52:23.114Z,23.40
2022-08-08T07:57:59.547Z,23.50
2022-08-08T08:03:24.061Z,23.30
2022-08-08T08:09:05.657Z,23.40
2022-08-08T08:14:11.846Z,23.72
2022-08-08T08:19:23.254Z,24.62
2022-08-08T08:24:30.783Z,25.22
2022-08-08T08:29:36.919Z,25.80
2022-08-08T08:34:49.282Z,26.18
2022-08-08T08:40:01.920Z,26.40
2022-08-08T08:45:22.072Z,26.42
2022-08-08T08:50:33.910Z,26.50
2022-08-08T08:55:41.066Z,26.54
2022-08-08T09:01:09.070Z,26.50
2022-08-08T09:06:26.681Z,26.60
2022-08-08T09:11:46.921Z,26.30
2022-08-08T09:16:58.011Z,26.20
2022-08-08T09:22:07.553Z,26.30
2022-08-08T09:27:21.055Z,26.14
2022-08-08T09:33:01.350Z,26.00
2022-08-08T09:38:18.080Z,26.00
2022-08-08T09:44:04.567Z,25.80
2022-08-08T09:48:56.042Z,25.30
2022-08-08T09:54:12.894Z,24.90
2022-08-08T10:00:02.529Z,24.70
2022-08-08T10:04:53.763Z,24.50
2022-08-08T10:10:01.331Z,24.50
2022-08-08T10:15:18.063Z,24.56
2022-08-08T10:20:41.412Z,24.50
2022-08-08T10:25:57.044Z,24.50
2022-08-08T10:31:47.638Z,24.60
2022-08-08T10:36:52.626Z,24.70
2022-08-08T10:42:14.626Z,24.70
2022-08-08T10:47:21.597Z,24.60
2022-08-08T10:52:31.075Z,24.58
2022-08-08T10:57:50.245Z,24.60
2022-08-08T11:02:57.892Z,24.70
2022-08-08T11:08:37.757Z,24.80
2022-08-08T11:13:28.474Z,24.90
2022-08-08T11:18:36.876Z,25.00
2022-08-08T11:23:44.536Z,25.00
2022-08-08T11:28:51.701Z,25.00
2022-08-08T11:34:03.083Z,25.00
2022-08-08T11:39:25.407Z,25.10
2022-08-08T11:44:32.834Z,25.20
2022-08-08T11:49:38.015Z,25.40
2022-08-08T11:54:46.793Z,25.42
2022-08-08T12:00:06.012Z,25.40
2022-08-08T12:05:13.467Z,25.50
2022-08-08T12:10:22.202Z,25.50
2022-08-08T12:15:42.571Z,25.22
2022-08-08T12:20:54.155Z,25.12
2022-08-08T12:26:17.259Z,25.00
2022-08-08T12:31:39.269Z,24.80
2022-08-08T12:37:08.451Z,24.70
2022-08-08T12:42:21.028Z,24.60
2022-08-08T12:47:58.618Z,24.40
2022-08-08T12:52:55.729Z,24.24
2022-08-08T12:58:15.812Z,24.04
2022-08-08T13:03:33.352Z,23.90
2022-08-08T13:08:53.580Z,23.80
2022-08-08T13:14:15.877Z,23.80
2022-08-08T13:19:24.953Z,23.70
2022-08-08T13:24:48.929Z,23.70
2022-08-08T13:29:59.361Z,23.70
2022-08-08T13:35:11.755Z,23.70
2022-08-08T13:40:32.149Z,23.60
2022-08-08T13:45:37.744Z,23.60
2022-08-08T13:50:55.139Z,23.50
2022-08-08T13:56:06.253Z,23.50
2022-08-08T14:01:19.974Z,23.50
2022-08-08T14:06:33.170Z,23.40
2022-08-08T14:11:38.533Z,23.40
2022-08-08T14:16:53.005Z,23.34
2022-08-08T14:21:59.703Z,23.32
2022-08-08T14:27:07.514Z,23.30
2022-08-08T14:32:20.280Z,23.20
2022-08-08T14:37:43.078Z,23.20
2022-08-08T14:43:01.362Z,23.14
2022-08-08T14:48:06.338Z,23.10
2022-08-08T14:53:15.753Z,23.00
2022-08-08T14:58:20.411Z,23.00
2022-08-08T15:08:54.865Z,22.92
2022-08-08T15:14:01.631Z,23.00
2022-08-08T15:19:07.918Z,23.00
2022-08-08T15:24:15.951Z,23.10
2022-08-08T15:29:22.571Z,23.10
2022-08-08T15:34:31.773Z,23.20
2022-08-08T15:39:39.864Z,23.30
2022-08-08T15:44:44.222Z,23.30
2022-08-08T15:49:51.112Z,23.30
2022-08-08T15:54:55.789Z,23.40
2022-08-08T16:00:07.877Z,23.40
2022-08-08T16:05:23.939Z,23.40
2022-08-08T16:13:09.020Z,23.30
2022-08-08T16:15:58.926Z,23.20
2022-08-08T16:21:26.036Z,23.08
2022-08-08T16:26:40.061Z,23.00
2022-08-08T16:31:50.570Z,22.90
2022-08-08T16:36:55.286Z,22.80
2022-08-08T16:42:01.645Z,22.70
2022-08-08T16:47:40.229Z,22.56
2022-08-08T16:55:04.695Z,22.40
2022-08-08T16:58:17.972Z,22.20
2022-08-08T17:03:25.310Z,22.10
2022-08-08T17:08:47.637Z,21.90
2022-08-08T17:14:01.611Z,21.80
2022-08-08T17:19:06.303Z,21.60
2022-08-08T17:24:21.893Z,21.50
2022-08-08T17:29:36.265Z,21.30
2022-08-08T17:35:52.438Z,21.10
2022-08-08T17:40:17.580Z,21.00
2022-08-08T17:45:24.434Z,20.90
2022-08-08T17:50:28.881Z,20.80
2022-08-08T17:56:03.788Z,20.70
2022-08-08T18:01:01.100Z,20.60
2022-08-08T18:06:06.552Z,20.50
2022-08-08T18:11:25.123Z,20.32
2022-08-08T18:16:33.927Z,20.20
2022-08-08T18:22:01.305Z,20.10
2022-08-08T18:27:06.239Z,20.00
2022-08-08T18:32:24.660Z,19.90
2022-08-08T18:37:34.094Z,19.80
2022-08-08T18:42:50.241Z,19.70
2022-08-08T18:47:55.587Z,19.70
2022-08-08T18:53:00.640Z,19.60
2022-08-08T18:58:07.447Z,19.60
2022-08-08T19:03:14.724Z,19.50
2022-08-08T19:08:25.244Z,19.40
2022-08-08T19:13:52.434Z,19.36
2022-08-08T19:19:03.603Z,19.30
2022-08-08T19:24:18.396Z,19.30
2022-08-08T19:29:35.617Z,19.40
2022-08-08T19:34:44.954Z,19.50
2022-08-08T19:39:51.049Z,19.40
2022-08-08T19:44:55.270Z,19.32
2022-08-08T19:50:12.577Z,19.30
2022-08-08T19:55:19.529Z,19.20
2022-08-08T20:00:33.263Z,19.10
2022-08-08T20:06:15.281Z,19.00
2022-08-08T20:11:02.747Z,18.90
2022-08-08T20:16:07.772Z,18.84
2022-08-08T20:21:12.966Z,18.82
2022-08-08T20:26:18.705Z,18.98
2022-08-08T20:32:06.896Z,19.00
2022-08-08T20:36:57.615Z,19.00
2022-08-08T20:42:01.914Z,18.90
2022-08-08T20:47:22.985Z,18.80
2022-08-08T20:52:30.884Z,18.60
2022-08-08T20:57:35.720Z,18.50
2022-08-08T21:02:52.813Z,18.40
2022-08-08T21:08:35.161Z,18.30
2022-08-08T21:13:39.936Z,18.20
2022-08-08T21:18:45.267Z,18.20
2022-08-08T21:24:02.879Z,18.10
2022-08-08T21:29:11.983Z,18.02
2022-08-08T21:34:24.011Z,18.00
2022-08-08T21:39:54.945Z,17.90
2022-08-08T21:45:01.116Z,17.90
2022-08-08T21:50:22.641Z,17.80
2022-08-08T21:56:19.748Z,17.70
2022-08-08T22:00:55.125Z,17.60
2022-08-08T22:06:00.128Z,17.50
2022-08-08T22:12:03.040Z,17.50
2022-08-08T22:16:33.465Z,17.40
2022-08-08T22:21:37.806Z,17.30
2022-08-08T22:27:01.233Z,17.20
2022-08-08T22:32:06.776Z,17.10
2022-08-08T22:37:27.592Z,17.00
2022-08-08T22:42:36.526Z,16.94
2022-08-08T22:47:47.395Z,16.90
2022-08-08T22:54:31.734Z,16.80
2022-08-08T22:58:28.871Z,16.80
2022-08-08T23:03:53.574Z,16.82
2022-08-08T23:09:00.173Z,16.80
2022-08-08T23:14:04.931Z,16.80
2022-08-08T23:19:09.215Z,16.70
2022-08-08T23:24:13.459Z,16.70
2022-08-08T23:29:29.904Z,16.64
2022-08-08T23:34:36.070Z,16.60
2022-08-08T23:39:41.866Z,16.50
2022-08-08T23:44:53.432Z,16.50
2022-08-08T23:50:00.958Z,16.40
2022-08-08T23:55:22.358Z,16.40
